sensor_id;sensor_type;location;lat;lon;timestamp;P1;durP1;ratioP1;P2;durP2;ratioP2
3627;SDS011;1830;49.000;12.074;2023-05-16T00:00:00;16.13;;;14.43;;
3627;SDS011;1830;49.000;12.074;2023-05-16T00:02:30;16.93;;;15.17;;
3627;SDS011;1830;49.000;12.074;2023-05-16T00:04:58;20.03;;;14.70;;
3627;SDS011;1830;49.000;12.074;2023-05-16T00:07:25;16.90;;;15.30;;
3627;SDS011;1830;49.000;12.074;2023-05-16T00:09:52;27.30;;;15.30;;
3627;SDS011;1830;49.000;12.074;2023-05-16T00:12:18;18.73;;;16.07;;
3627;SDS011;1830;49.000;12.074;2023-05-16T00:14:46;18.77;;;15.63;;
3627;SDS011;1830;49.000;12.074;2023-05-16T00:17:14;18.03;;;15.83;;
3627;SDS011;1830;49.000;12.074;2023-05-16T00:19:41;23.53;;;16.30;;
3627;SDS011;1830;49.000;12.074;2023-05-16T00:22:10;22.67;;;15.10;;
3627;SDS011;1830;49.000;12.074;2023-05-16T00:24:37;17.37;;;14.70;;
3627;SDS011;1830;49.000;12.074;2023-05-16T00:27:03;16.87;;;15.17;;
3627;SDS011;1830;49.000;12.074;2023-05-16T00:29:30;17.77;;;15.90;;
3627;SDS011;1830;49.000;12.074;2023-05-16T00:31:57;16.67;;;15.00;;
3627;SDS011;1830;49.000;12.074;2023-05-16T00:34:24;17.70;;;15.77;;
3627;SDS011;1830;49.000;12.074;2023-05-16T00:36:51;15.87;;;14.23;;
3627;SDS011;1830;49.000;12.074;2023-05-16T00:39:19;25.40;;;15.10;;
3627;SDS011;1830;49.000;12.074;2023-05-16T00:41:45;23.83;;;14.67;;
3627;SDS011;1830;49.000;12.074;2023-05-16T00:44:12;17.07;;;15.27;;
3627;SDS011;1830;49.000;12.074;2023-05-16T00:46:39;20.20;;;16.07;;
3627;SDS011;1830;49.000;12.074;2023-05-16T00:49:06;17.87;;;16.03;;
3627;SDS011;1830;49.000;12.074;2023-05-16T00:51:34;19.03;;;16.57;;
3627;SDS011;1830;49.000;12.074;2023-05-16T00:54:02;17.47;;;15.70;;
3627;SDS011;1830;49.000;12.074;2023-05-16T00:56:32;18.20;;;16.23;;
3627;SDS011;1830;49.000;12.074;2023-05-16T00:58:59;17.83;;;15.00;;
3627;SDS011;1830;49.000;12.074;2023-05-16T01:01:27;21.73;;;16.13;;
3627;SDS011;1830;49.000;12.074;2023-05-16T01:03:55;15.67;;;13.97;;
3627;SDS011;1830;49.000;12.074;2023-05-16T01:06:22;16.30;;;14.60;;
3627;SDS011;1830;49.000;12.074;2023-05-16T01:08:48;16.77;;;14.53;;
3627;SDS011;1830;49.000;12.074;2023-05-16T01:11:17;23.00;;;14.87;;
3627;SDS011;1830;49.000;12.074;2023-05-16T01:13:54;17.80;;;14.67;;
3627;SDS011;1830;49.000;12.074;2023-05-16T01:16:32;16.07;;;14.37;;
3627;SDS011;1830;49.000;12.074;2023-05-16T01:19:06;18.40;;;16.50;;
3627;SDS011;1830;49.000;12.074;2023-05-16T01:21:47;18.40;;;16.50;;
3627;SDS011;1830;49.000;12.074;2023-05-16T01:24:22;17.27;;;15.43;;
3627;SDS011;1830;49.000;12.074;2023-05-16T01:26:54;20.20;;;16.10;;
3627;SDS011;1830;49.000;12.074;2023-05-16T01:29:22;18.47;;;15.27;;
3627;SDS011;1830;49.000;12.074;2023-05-16T01:31:48;19.00;;;16.87;;
3627;SDS011;1830;49.000;12.074;2023-05-16T01:34:15;211.33;;;21.83;;
3627;SDS011;1830;49.000;12.074;2023-05-16T01:36:43;83.10;;;21.57;;
3627;SDS011;1830;49.000;12.074;2023-05-16T01:39:19;183.30;;;22.60;;
3627;SDS011;1830;49.000;12.074;2023-05-16T01:41:52;79.63;;;23.00;;
3627;SDS011;1830;49.000;12.074;2023-05-16T01:44:28;94.53;;;22.07;;
3627;SDS011;1830;49.000;12.074;2023-05-16T01:47:00;80.60;;;20.30;;
3627;SDS011;1830;49.000;12.074;2023-05-16T01:49:33;289.20;;;24.60;;
3627;SDS011;1830;49.000;12.074;2023-05-16T01:52:04;185.63;;;22.87;;
3627;SDS011;1830;49.000;12.074;2023-05-16T01:54:34;192.10;;;22.20;;
3627;SDS011;1830;49.000;12.074;2023-05-16T01:57:06;112.47;;;20.37;;
3627;SDS011;1830;49.000;12.074;2023-05-16T01:59:34;240.87;;;22.20;;
3627;SDS011;1830;49.000;12.074;2023-05-16T02:02:01;166.97;;;20.67;;
3627;SDS011;1830;49.000;12.074;2023-05-16T02:04:28;38.17;;;17.60;;
3627;SDS011;1830;49.000;12.074;2023-05-16T02:06:55;103.83;;;17.27;;
3627;SDS011;1830;49.000;12.074;2023-05-16T02:09:24;90.43;;;19.43;;
3627;SDS011;1830;49.000;12.074;2023-05-16T02:11:51;35.73;;;18.87;;
3627;SDS011;1830;49.000;12.074;2023-05-16T02:14:19;67.20;;;18.50;;
3627;SDS011;1830;49.000;12.074;2023-05-16T02:16:46;64.63;;;20.20;;
3627;SDS011;1830;49.000;12.074;2023-05-16T02:19:13;55.47;;;18.47;;
3627;SDS011;1830;49.000;12.074;2023-05-16T02:21:40;49.30;;;17.57;;
3627;SDS011;1830;49.000;12.074;2023-05-16T02:24:07;40.03;;;18.47;;
3627;SDS011;1830;49.000;12.074;2023-05-16T02:26:36;23.63;;;17.07;;
3627;SDS011;1830;49.000;12.074;2023-05-16T02:29:03;24.90;;;18.20;;
3627;SDS011;1830;49.000;12.074;2023-05-16T02:31:32;26.37;;;20.17;;
3627;SDS011;1830;49.000;12.074;2023-05-16T02:33:59;22.10;;;16.50;;
3627;SDS011;1830;49.000;12.074;2023-05-16T02:36:26;19.70;;;17.67;;
3627;SDS011;1830;49.000;12.074;2023-05-16T02:38:53;20.27;;;18.17;;
3627;SDS011;1830;49.000;12.074;2023-05-16T02:41:20;19.83;;;17.47;;
3627;SDS011;1830;49.000;12.074;2023-05-16T02:43:47;22.33;;;18.10;;
3627;SDS011;1830;49.000;12.074;2023-05-16T02:46:20;21.20;;;17.43;;
3627;SDS011;1830;49.000;12.074;2023-05-16T02:48:51;22.53;;;19.03;;
3627;SDS011;1830;49.000;12.074;2023-05-16T02:51:19;28.63;;;18.90;;
3627;SDS011;1830;49.000;12.074;2023-05-16T02:53:47;18.90;;;17.00;;
3627;SDS011;1830;49.000;12.074;2023-05-16T02:56:14;18.53;;;16.63;;
3627;SDS011;1830;49.000;12.074;2023-05-16T02:58:41;19.30;;;16.63;;
3627;SDS011;1830;49.000;12.074;2023-05-16T03:01:08;23.53;;;18.17;;
3627;SDS011;1830;49.000;12.074;2023-05-16T03:03:35;25.00;;;19.53;;
3627;SDS011;1830;49.000;12.074;2023-05-16T03:06:04;39.67;;;19.90;;
3627;SDS011;1830;49.000;12.074;2023-05-16T03:08:31;45.93;;;20.87;;
3627;SDS011;1830;49.000;12.074;2023-05-16T03:10:58;63.43;;;22.17;;
3627;SDS011;1830;49.000;12.074;2023-05-16T03:13:24;63.33;;;23.43;;
3627;SDS011;1830;49.000;12.074;2023-05-16T03:15:52;32.43;;;20.40;;
3627;SDS011;1830;49.000;12.074;2023-05-16T03:18:19;108.07;;;22.70;;
3627;SDS011;1830;49.000;12.074;2023-05-16T03:20:46;131.57;;;25.00;;
3627;SDS011;1830;49.000;12.074;2023-05-16T03:23:14;98.20;;;22.27;;
3627;SDS011;1830;49.000;12.074;2023-05-16T03:25:40;283.07;;;25.60;;
3627;SDS011;1830;49.000;12.074;2023-05-16T03:28:11;87.67;;;21.07;;
3627;SDS011;1830;49.000;12.074;2023-05-16T03:30:38;36.93;;;19.70;;
3627;SDS011;1830;49.000;12.074;2023-05-16T03:33:05;110.90;;;21.83;;
3627;SDS011;1830;49.000;12.074;2023-05-16T03:35:32;54.00;;;22.47;;
3627;SDS011;1830;49.000;12.074;2023-05-16T03:38:00;27.70;;;21.17;;
3627;SDS011;1830;49.000;12.074;2023-05-16T03:40:28;55.87;;;23.20;;
3627;SDS011;1830;49.000;12.074;2023-05-16T03:42:55;69.73;;;22.57;;
3627;SDS011;1830;49.000;12.074;2023-05-16T03:45:22;57.67;;;22.10;;
3627;SDS011;1830;49.000;12.074;2023-05-16T03:47:49;147.97;;;22.07;;
3627;SDS011;1830;49.000;12.074;2023-05-16T03:50:15;69.70;;;20.90;;
3627;SDS011;1830;49.000;12.074;2023-05-16T03:52:42;41.23;;;23.67;;
3627;SDS011;1830;49.000;12.074;2023-05-16T03:55:09;100.63;;;23.23;;
3627;SDS011;1830;49.000;12.074;2023-05-16T03:57:40;93.67;;;23.40;;
3627;SDS011;1830;49.000;12.074;2023-05-16T04:00:08;90.60;;;24.83;;
3627;SDS011;1830;49.000;12.074;2023-05-16T04:02:36;86.43;;;25.33;;
3627;SDS011;1830;49.000;12.074;2023-05-16T04:05:04;30.83;;;23.67;;
3627;SDS011;1830;49.000;12.074;2023-05-16T04:07:32;127.23;;;23.83;;
3627;SDS011;1830;49.000;12.074;2023-05-16T04:09:59;50.50;;;23.40;;
3627;SDS011;1830;49.000;12.074;2023-05-16T04:12:26;33.07;;;24.43;;
3627;SDS011;1830;49.000;12.074;2023-05-16T04:14:54;32.43;;;25.67;;
3627;SDS011;1830;49.000;12.074;2023-05-16T04:17:21;50.30;;;23.37;;
3627;SDS011;1830;49.000;12.074;2023-05-16T04:19:48;32.47;;;23.00;;
3627;SDS011;1830;49.000;12.074;2023-05-16T04:22:14;35.70;;;26.03;;
3627;SDS011;1830;49.000;12.074;2023-05-16T04:24:41;35.20;;;24.30;;
3627;SDS011;1830;49.000;12.074;2023-05-16T04:27:08;32.90;;;24.20;;
3627;SDS011;1830;49.000;12.074;2023-05-16T04:29:36;30.30;;;23.83;;
3627;SDS011;1830;49.000;12.074;2023-05-16T04:32:04;87.93;;;27.13;;
3627;SDS011;1830;49.000;12.074;2023-05-16T04:34:32;183.43;;;26.10;;
3627;SDS011;1830;49.000;12.074;2023-05-16T04:37:01;358.07;;;30.40;;
3627;SDS011;1830;49.000;12.074;2023-05-16T04:39:29;186.10;;;26.77;;
3627;SDS011;1830;49.000;12.074;2023-05-16T04:41:56;78.13;;;24.50;;
3627;SDS011;1830;49.000;12.074;2023-05-16T04:44:24;100.40;;;22.07;;
3627;SDS011;1830;49.000;12.074;2023-05-16T04:46:51;59.77;;;21.40;;
3627;SDS011;1830;49.000;12.074;2023-05-16T04:49:19;41.10;;;20.43;;
3627;SDS011;1830;49.000;12.074;2023-05-16T04:51:46;22.07;;;18.40;;
3627;SDS011;1830;49.000;12.074;2023-05-16T04:54:14;33.33;;;19.57;;
3627;SDS011;1830;49.000;12.074;2023-05-16T04:56:41;23.20;;;20.90;;
3627;SDS011;1830;49.000;12.074;2023-05-16T04:59:08;22.57;;;20.20;;
3627;SDS011;1830;49.000;12.074;2023-05-16T05:01:34;21.60;;;18.90;;
3627;SDS011;1830;49.000;12.074;2023-05-16T05:04:01;25.90;;;20.27;;
3627;SDS011;1830;49.000;12.074;2023-05-16T05:06:30;22.80;;;20.37;;
3627;SDS011;1830;49.000;12.074;2023-05-16T05:08:57;20.70;;;18.00;;
3627;SDS011;1830;49.000;12.074;2023-05-16T05:11:24;26.43;;;19.40;;
3627;SDS011;1830;49.000;12.074;2023-05-16T05:13:51;19.97;;;17.87;;
3627;SDS011;1830;49.000;12.074;2023-05-16T05:16:18;21.90;;;18.97;;
3627;SDS011;1830;49.000;12.074;2023-05-16T05:18:45;21.23;;;18.87;;
3627;SDS011;1830;49.000;12.074;2023-05-16T05:21:11;20.23;;;17.83;;
3627;SDS011;1830;49.000;12.074;2023-05-16T05:23:39;23.13;;;19.13;;
3627;SDS011;1830;49.000;12.074;2023-05-16T05:26:06;24.30;;;19.33;;
3627;SDS011;1830;49.000;12.074;2023-05-16T05:28:33;20.37;;;16.90;;
3627;SDS011;1830;49.000;12.074;2023-05-16T05:31:01;22.87;;;15.73;;
3627;SDS011;1830;49.000;12.074;2023-05-16T05:33:29;20.63;;;16.60;;
3627;SDS011;1830;49.000;12.074;2023-05-16T05:35:56;26.60;;;17.90;;
3627;SDS011;1830;49.000;12.074;2023-05-16T05:38:23;20.40;;;16.03;;
3627;SDS011;1830;49.000;12.074;2023-05-16T05:40:51;18.17;;;16.27;;
3627;SDS011;1830;49.000;12.074;2023-05-16T05:43:18;20.83;;;16.30;;
3627;SDS011;1830;49.000;12.074;2023-05-16T05:45:45;22.23;;;16.67;;
3627;SDS011;1830;49.000;12.074;2023-05-16T05:48:11;22.90;;;16.60;;
3627;SDS011;1830;49.000;12.074;2023-05-16T05:50:38;26.70;;;17.57;;
3627;SDS011;1830;49.000;12.074;2023-05-16T05:53:05;24.30;;;18.67;;
3627;SDS011;1830;49.000;12.074;2023-05-16T05:55:32;24.10;;;16.97;;
3627;SDS011;1830;49.000;12.074;2023-05-16T05:58:00;20.10;;;17.20;;
3627;SDS011;1830;49.000;12.074;2023-05-16T06:00:27;18.43;;;16.53;;
3627;SDS011;1830;49.000;12.074;2023-05-16T06:02:54;20.20;;;17.50;;
3627;SDS011;1830;49.000;12.074;2023-05-16T06:05:21;24.73;;;16.77;;
3627;SDS011;1830;49.000;12.074;2023-05-16T06:07:48;24.33;;;17.27;;
3627;SDS011;1830;49.000;12.074;2023-05-16T06:10:15;19.03;;;16.97;;
3627;SDS011;1830;49.000;12.074;2023-05-16T06:12:42;18.60;;;16.33;;
3627;SDS011;1830;49.000;12.074;2023-05-16T06:15:10;19.60;;;16.00;;
3627;SDS011;1830;49.000;12.074;2023-05-16T06:17:37;25.10;;;19.70;;
3627;SDS011;1830;49.000;12.074;2023-05-16T06:20:04;22.40;;;18.37;;
3627;SDS011;1830;49.000;12.074;2023-05-16T06:22:32;18.87;;;16.90;;
3627;SDS011;1830;49.000;12.074;2023-05-16T06:24:59;20.40;;;16.67;;
3627;SDS011;1830;49.000;12.074;2023-05-16T06:27:26;19.57;;;17.63;;
3627;SDS011;1830;49.000;12.074;2023-05-16T06:29:53;18.70;;;16.90;;
3627;SDS011;1830;49.000;12.074;2023-05-16T06:32:21;20.20;;;15.63;;
3627;SDS011;1830;49.000;12.074;2023-05-16T06:34:48;20.60;;;16.70;;
3627;SDS011;1830;49.000;12.074;2023-05-16T06:37:15;22.50;;;17.07;;
3627;SDS011;1830;49.000;12.074;2023-05-16T06:39:41;22.03;;;16.67;;
3627;SDS011;1830;49.000;12.074;2023-05-16T06:42:08;26.10;;;18.27;;
3627;SDS011;1830;49.000;12.074;2023-05-16T06:44:36;18.20;;;16.40;;
3627;SDS011;1830;49.000;12.074;2023-05-16T06:47:03;17.83;;;15.97;;
3627;SDS011;1830;49.000;12.074;2023-05-16T06:49:32;17.83;;;16.00;;
3627;SDS011;1830;49.000;12.074;2023-05-16T06:51:58;22.67;;;17.20;;
3627;SDS011;1830;49.000;12.074;2023-05-16T06:54:25;29.73;;;16.40;;
3627;SDS011;1830;49.000;12.074;2023-05-16T06:56:52;22.57;;;17.37;;
3627;SDS011;1830;49.000;12.074;2023-05-16T06:59:19;21.40;;;16.77;;
3627;SDS011;1830;49.000;12.074;2023-05-16T07:01:45;19.40;;;17.30;;
3627;SDS011;1830;49.000;12.074;2023-05-16T07:04:12;19.30;;;16.77;;
3627;SDS011;1830;49.000;12.074;2023-05-16T07:06:40;17.67;;;15.97;;
3627;SDS011;1830;49.000;12.074;2023-05-16T07:09:07;19.83;;;16.07;;
3627;SDS011;1830;49.000;12.074;2023-05-16T07:11:34;16.97;;;15.33;;
3627;SDS011;1830;49.000;12.074;2023-05-16T07:14:01;20.97;;;16.47;;
3627;SDS011;1830;49.000;12.074;2023-05-16T07:16:28;20.17;;;16.33;;
3627;SDS011;1830;49.000;12.074;2023-05-16T07:18:54;17.37;;;15.57;;
3627;SDS011;1830;49.000;12.074;2023-05-16T07:21:21;31.87;;;16.80;;
3627;SDS011;1830;49.000;12.074;2023-05-16T07:23:49;20.63;;;17.03;;
3627;SDS011;1830;49.000;12.074;2023-05-16T07:26:16;20.50;;;17.80;;
3627;SDS011;1830;49.000;12.074;2023-05-16T07:28:46;30.73;;;16.90;;
3627;SDS011;1830;49.000;12.074;2023-05-16T07:31:13;17.67;;;15.87;;
3627;SDS011;1830;49.000;12.074;2023-05-16T07:33:40;18.93;;;14.73;;
3627;SDS011;1830;49.000;12.074;2023-05-16T07:36:07;24.47;;;16.73;;
3627;SDS011;1830;49.000;12.074;2023-05-16T07:38:34;18.20;;;16.30;;
3627;SDS011;1830;49.000;12.074;2023-05-16T07:41:02;20.40;;;15.40;;
3627;SDS011;1830;49.000;12.074;2023-05-16T07:43:29;19.40;;;16.00;;
3627;SDS011;1830;49.000;12.074;2023-05-16T07:45:56;19.50;;;16.03;;
3627;SDS011;1830;49.000;12.074;2023-05-16T07:48:22;19.60;;;16.20;;
3627;SDS011;1830;49.000;12.074;2023-05-16T07:50:49;20.37;;;15.00;;
3627;SDS011;1830;49.000;12.074;2023-05-16T07:53:17;26.33;;;15.50;;
3627;SDS011;1830;49.000;12.074;2023-05-16T07:55:44;18.83;;;15.93;;
3627;SDS011;1830;49.000;12.074;2023-05-16T07:58:12;19.30;;;15.90;;
3627;SDS011;1830;49.000;12.074;2023-05-16T08:00:39;22.90;;;16.00;;
3627;SDS011;1830;49.000;12.074;2023-05-16T08:03:06;22.07;;;14.33;;
3627;SDS011;1830;49.000;12.074;2023-05-16T08:05:33;22.40;;;16.63;;
3627;SDS011;1830;49.000;12.074;2023-05-16T08:07:59;18.60;;;16.00;;
3627;SDS011;1830;49.000;12.074;2023-05-16T08:10:26;23.43;;;16.93;;
3627;SDS011;1830;49.000;12.074;2023-05-16T08:13:02;21.10;;;15.20;;
3627;SDS011;1830;49.000;12.074;2023-05-16T08:15:30;27.00;;;16.10;;
3627;SDS011;1830;49.000;12.074;2023-05-16T08:17:57;19.63;;;16.03;;
3627;SDS011;1830;49.000;12.074;2023-05-16T08:20:25;23.50;;;16.70;;
3627;SDS011;1830;49.000;12.074;2023-05-16T08:22:52;18.03;;;16.13;;
3627;SDS011;1830;49.000;12.074;2023-05-16T08:25:19;22.00;;;16.10;;
3627;SDS011;1830;49.000;12.074;2023-05-16T08:27:47;20.43;;;14.87;;
3627;SDS011;1830;49.000;12.074;2023-05-16T08:30:14;18.10;;;16.07;;
3627;SDS011;1830;49.000;12.074;2023-05-16T08:32:43;18.47;;;15.00;;
3627;SDS011;1830;49.000;12.074;2023-05-16T08:35:09;18.90;;;15.70;;
3627;SDS011;1830;49.000;12.074;2023-05-16T08:37:37;17.23;;;15.43;;
3627;SDS011;1830;49.000;12.074;2023-05-16T08:40:04;17.43;;;14.63;;
3627;SDS011;1830;49.000;12.074;2023-05-16T08:42:34;17.73;;;14.23;;
3627;SDS011;1830;49.000;12.074;2023-05-16T08:45:01;19.23;;;14.77;;
3627;SDS011;1830;49.000;12.074;2023-05-16T08:47:30;21.40;;;14.07;;
3627;SDS011;1830;49.000;12.074;2023-05-16T08:50:00;16.37;;;14.77;;
3627;SDS011;1830;49.000;12.074;2023-05-16T08:52:29;22.27;;;15.60;;
3627;SDS011;1830;49.000;12.074;2023-05-16T08:54:58;17.40;;;14.73;;
3627;SDS011;1830;49.000;12.074;2023-05-16T08:57:29;18.63;;;13.20;;
3627;SDS011;1830;49.000;12.074;2023-05-16T08:59:57;19.20;;;14.50;;
3627;SDS011;1830;49.000;12.074;2023-05-16T09:02:25;17.70;;;15.10;;
3627;SDS011;1830;49.000;12.074;2023-05-16T09:04:52;15.57;;;13.60;;
3627;SDS011;1830;49.000;12.074;2023-05-16T09:07:23;15.70;;;13.73;;
3627;SDS011;1830;49.000;12.074;2023-05-16T09:09:50;14.87;;;13.23;;
3627;SDS011;1830;49.000;12.074;2023-05-16T09:12:17;16.63;;;13.23;;
3627;SDS011;1830;49.000;12.074;2023-05-16T09:14:45;14.73;;;13.00;;
3627;SDS011;1830;49.000;12.074;2023-05-16T09:17:12;14.00;;;12.60;;
3627;SDS011;1830;49.000;12.074;2023-05-16T09:19:40;16.17;;;12.93;;
3627;SDS011;1830;49.000;12.074;2023-05-16T09:22:08;18.90;;;13.30;;
3627;SDS011;1830;49.000;12.074;2023-05-16T09:24:41;14.27;;;12.70;;
3627;SDS011;1830;49.000;12.074;2023-05-16T09:27:09;14.43;;;13.03;;
3627;SDS011;1830;49.000;12.074;2023-05-16T09:29:39;13.60;;;12.20;;
3627;SDS011;1830;49.000;12.074;2023-05-16T09:32:09;15.20;;;13.60;;
3627;SDS011;1830;49.000;12.074;2023-05-16T09:34:38;14.60;;;12.43;;
3627;SDS011;1830;49.000;12.074;2023-05-16T09:37:08;14.47;;;12.97;;
3627;SDS011;1830;49.000;12.074;2023-05-16T09:39:37;17.50;;;13.83;;
3627;SDS011;1830;49.000;12.074;2023-05-16T09:42:10;16.70;;;13.03;;
3627;SDS011;1830;49.000;12.074;2023-05-16T09:44:38;29.07;;;13.50;;
3627;SDS011;1830;49.000;12.074;2023-05-16T09:47:09;14.37;;;12.80;;
3627;SDS011;1830;49.000;12.074;2023-05-16T09:50:08;12.93;;;11.20;;
3627;SDS011;1830;49.000;12.074;2023-05-16T09:52:38;17.10;;;11.57;;
3627;SDS011;1830;49.000;12.074;2023-05-16T09:58:17;20.50;;;11.53;;
3627;SDS011;1830;49.000;12.074;2023-05-16T10:00:43;12.67;;;11.37;;
3627;SDS011;1830;49.000;12.074;2023-05-16T10:03:11;12.47;;;11.17;;
3627;SDS011;1830;49.000;12.074;2023-05-16T10:05:51;13.37;;;11.93;;
3627;SDS011;1830;49.000;12.074;2023-05-16T10:08:21;19.90;;;13.10;;
3627;SDS011;1830;49.000;12.074;2023-05-16T10:10:50;15.63;;;13.93;;
3627;SDS011;1830;49.000;12.074;2023-05-16T10:13:27;18.00;;;13.37;;
3627;SDS011;1830;49.000;12.074;2023-05-16T10:15:58;16.90;;;13.50;;
3627;SDS011;1830;49.000;12.074;2023-05-16T10:18:28;12.37;;;11.10;;
3627;SDS011;1830;49.000;12.074;2023-05-16T10:20:56;18.20;;;11.83;;
3627;SDS011;1830;49.000;12.074;2023-05-16T10:23:26;14.67;;;12.20;;
3627;SDS011;1830;49.000;12.074;2023-05-16T10:25:54;13.13;;;11.83;;
3627;SDS011;1830;49.000;12.074;2023-05-16T10:28:27;16.00;;;13.40;;
3627;SDS011;1830;49.000;12.074;2023-05-16T10:31:04;16.83;;;13.03;;
3627;SDS011;1830;49.000;12.074;2023-05-16T10:33:33;18.30;;;13.17;;
3627;SDS011;1830;49.000;12.074;2023-05-16T10:36:04;13.90;;;12.40;;
3627;SDS011;1830;49.000;12.074;2023-05-16T10:38:31;18.43;;;14.67;;
3627;SDS011;1830;49.000;12.074;2023-05-16T10:40:59;20.00;;;15.33;;
3627;SDS011;1830;49.000;12.074;2023-05-16T10:43:30;18.20;;;16.30;;
3627;SDS011;1830;49.000;12.074;2023-05-16T10:45:58;21.87;;;17.33;;
3627;SDS011;1830;49.000;12.074;2023-05-16T10:48:28;25.30;;;19.07;;
3627;SDS011;1830;49.000;12.074;2023-05-16T10:50:57;24.93;;;20.53;;
3627;SDS011;1830;49.000;12.074;2023-05-16T10:53:28;26.43;;;19.97;;
3627;SDS011;1830;49.000;12.074;2023-05-16T10:56:06;27.37;;;19.60;;
3627;SDS011;1830;49.000;12.074;2023-05-16T11:01:21;26.13;;;20.20;;
3627;SDS011;1830;49.000;12.074;2023-05-16T11:04:05;29.80;;;22.07;;
3627;SDS011;1830;49.000;12.074;2023-05-16T11:06:34;26.93;;;20.90;;
3627;SDS011;1830;49.000;12.074;2023-05-16T11:09:23;18.33;;;16.43;;
3627;SDS011;1830;49.000;12.074;2023-05-16T11:11:55;22.73;;;18.30;;
3627;SDS011;1830;49.000;12.074;2023-05-16T11:14:25;23.53;;;16.80;;
3627;SDS011;1830;49.000;12.074;2023-05-16T11:16:58;14.30;;;10.67;;
3627;SDS011;1830;49.000;12.074;2023-05-16T11:19:28;14.40;;;12.10;;
3627;SDS011;1830;49.000;12.074;2023-05-16T11:22:06;23.03;;;14.70;;
3627;SDS011;1830;49.000;12.074;2023-05-16T11:24:34;22.83;;;16.57;;
3627;SDS011;1830;49.000;12.074;2023-05-16T11:27:02;18.33;;;14.87;;
3627;SDS011;1830;49.000;12.074;2023-05-16T11:29:31;20.03;;;17.47;;
3627;SDS011;1830;49.000;12.074;2023-05-16T11:31:59;20.30;;;15.57;;
3627;SDS011;1830;49.000;12.074;2023-05-16T11:34:28;28.73;;;16.43;;
3627;SDS011;1830;49.000;12.074;2023-05-16T11:36:55;18.40;;;16.47;;
3627;SDS011;1830;49.000;12.074;2023-05-16T11:39:24;18.80;;;16.00;;
3627;SDS011;1830;49.000;12.074;2023-05-16T11:41:51;21.67;;;16.00;;
3627;SDS011;1830;49.000;12.074;2023-05-16T11:44:18;17.30;;;15.40;;
3627;SDS011;1830;49.000;12.074;2023-05-16T11:46:47;19.10;;;17.10;;
3627;SDS011;1830;49.000;12.074;2023-05-16T11:49:13;17.67;;;15.97;;
3627;SDS011;1830;49.000;12.074;2023-05-16T11:51:41;18.53;;;16.07;;
3627;SDS011;1830;49.000;12.074;2023-05-16T11:54:08;19.97;;;16.77;;
3627;SDS011;1830;49.000;12.074;2023-05-16T11:56:37;19.40;;;16.33;;
3627;SDS011;1830;49.000;12.074;2023-05-16T11:59:05;20.70;;;15.83;;
3627;SDS011;1830;49.000;12.074;2023-05-16T12:01:32;22.43;;;17.00;;
3627;SDS011;1830;49.000;12.074;2023-05-16T12:04:02;22.33;;;19.93;;
3627;SDS011;1830;49.000;12.074;2023-05-16T12:06:34;20.90;;;18.77;;
3627;SDS011;1830;49.000;12.074;2023-05-16T12:09:01;21.93;;;18.70;;
3627;SDS011;1830;49.000;12.074;2023-05-16T12:11:34;18.83;;;16.90;;
3627;SDS011;1830;49.000;12.074;2023-05-16T12:14:02;20.00;;;17.83;;
3627;SDS011;1830;49.000;12.074;2023-05-16T12:16:29;19.93;;;17.80;;
3627;SDS011;1830;49.000;12.074;2023-05-16T12:18:56;17.80;;;15.37;;
3627;SDS011;1830;49.000;12.074;2023-05-16T12:21:25;19.03;;;15.73;;
3627;SDS011;1830;49.000;12.074;2023-05-16T12:23:52;24.20;;;17.37;;
3627;SDS011;1830;49.000;12.074;2023-05-16T12:26:23;20.20;;;18.07;;
3627;SDS011;1830;49.000;12.074;2023-05-16T12:28:52;23.07;;;17.53;;
3627;SDS011;1830;49.000;12.074;2023-05-16T12:31:21;17.57;;;15.33;;
3627;SDS011;1830;49.000;12.074;2023-05-16T12:33:47;17.90;;;16.10;;
3627;SDS011;1830;49.000;12.074;2023-05-16T12:36:18;19.47;;;17.47;;
3627;SDS011;1830;49.000;12.074;2023-05-16T12:38:46;21.70;;;19.50;;
3627;SDS011;1830;49.000;12.074;2023-05-16T12:41:16;33.70;;;18.87;;
3627;SDS011;1830;49.000;12.074;2023-05-16T12:43:44;21.60;;;18.50;;
3627;SDS011;1830;49.000;12.074;2023-05-16T12:46:11;27.00;;;19.77;;
3627;SDS011;1830;49.000;12.074;2023-05-16T12:48:38;22.83;;;20.43;;
3627;SDS011;1830;49.000;12.074;2023-05-16T12:51:10;21.30;;;18.93;;
3627;SDS011;1830;49.000;12.074;2023-05-16T12:53:42;21.03;;;18.90;;
3627;SDS011;1830;49.000;12.074;2023-05-16T12:56:12;34.97;;;18.87;;
3627;SDS011;1830;49.000;12.074;2023-05-16T12:58:39;21.10;;;18.20;;
3627;SDS011;1830;49.000;12.074;2023-05-16T13:01:07;25.80;;;17.90;;
3627;SDS011;1830;49.000;12.074;2023-05-16T13:03:35;23.13;;;18.03;;
3627;SDS011;1830;49.000;12.074;2023-05-16T13:06:02;20.87;;;16.90;;
3627;SDS011;1830;49.000;12.074;2023-05-16T13:08:30;16.70;;;15.00;;
3627;SDS011;1830;49.000;12.074;2023-05-16T13:10:57;15.20;;;13.80;;
3627;SDS011;1830;49.000;12.074;2023-05-16T13:13:25;15.77;;;13.80;;
3627;SDS011;1830;49.000;12.074;2023-05-16T13:15:51;16.47;;;14.50;;
3627;SDS011;1830;49.000;12.074;2023-05-16T13:18:18;18.40;;;15.20;;
3627;SDS011;1830;49.000;12.074;2023-05-16T13:20:45;18.77;;;15.40;;
3627;SDS011;1830;49.000;12.074;2023-05-16T13:23:12;22.00;;;17.33;;
3627;SDS011;1830;49.000;12.074;2023-05-16T13:25:39;19.87;;;15.17;;
3627;SDS011;1830;49.000;12.074;2023-05-16T13:28:05;18.97;;;16.97;;
3627;SDS011;1830;49.000;12.074;2023-05-16T13:30:34;25.40;;;16.97;;
3627;SDS011;1830;49.000;12.074;2023-05-16T13:33:01;19.93;;;17.40;;
3627;SDS011;1830;49.000;12.074;2023-05-16T13:35:28;19.53;;;17.00;;
3627;SDS011;1830;49.000;12.074;2023-05-16T13:37:55;25.83;;;17.17;;
3627;SDS011;1830;49.000;12.074;2023-05-16T13:40:21;20.50;;;17.20;;
3627;SDS011;1830;49.000;12.074;2023-05-16T13:42:48;22.27;;;16.33;;
3627;SDS011;1830;49.000;12.074;2023-05-16T13:45:15;21.60;;;17.77;;
3627;SDS011;1830;49.000;12.074;2023-05-16T13:47:43;23.63;;;14.60;;
3627;SDS011;1830;49.000;12.074;2023-05-16T13:50:10;17.23;;;14.63;;
3627;SDS011;1830;49.000;12.074;2023-05-16T13:52:37;18.50;;;16.50;;
3627;SDS011;1830;49.000;12.074;2023-05-16T13:55:05;22.70;;;18.57;;
3627;SDS011;1830;49.000;12.074;2023-05-16T13:57:33;21.70;;;19.37;;
3627;SDS011;1830;49.000;12.074;2023-05-16T14:00:00;21.33;;;17.60;;
3627;SDS011;1830;49.000;12.074;2023-05-16T14:02:29;19.33;;;17.43;;
3627;SDS011;1830;49.000;12.074;2023-05-16T14:04:57;19.77;;;17.47;;
3627;SDS011;1830;49.000;12.074;2023-05-16T14:07:24;22.60;;;17.90;;
3627;SDS011;1830;49.000;12.074;2023-05-16T14:09:50;21.47;;;18.13;;
3627;SDS011;1830;49.000;12.074;2023-05-16T14:12:17;19.00;;;16.77;;
3627;SDS011;1830;49.000;12.074;2023-05-16T14:14:44;19.03;;;17.00;;
3627;SDS011;1830;49.000;12.074;2023-05-16T14:17:11;18.97;;;17.00;;
3627;SDS011;1830;49.000;12.074;2023-05-16T14:19:38;18.93;;;16.90;;
3627;SDS011;1830;49.000;12.074;2023-05-16T14:22:06;17.73;;;15.83;;
3627;SDS011;1830;49.000;12.074;2023-05-16T14:24:33;28.17;;;21.20;;
3627;SDS011;1830;49.000;12.074;2023-05-16T14:26:59;27.03;;;21.17;;
3627;SDS011;1830;49.000;12.074;2023-05-16T14:29:27;23.37;;;20.83;;
3627;SDS011;1830;49.000;12.074;2023-05-16T14:31:53;26.90;;;22.87;;
3627;SDS011;1830;49.000;12.074;2023-05-16T14:34:20;22.00;;;17.40;;
3627;SDS011;1830;49.000;12.074;2023-05-16T14:36:47;22.30;;;19.07;;
3627;SDS011;1830;49.000;12.074;2023-05-16T14:39:16;24.50;;;18.80;;
3627;SDS011;1830;49.000;12.074;2023-05-16T14:41:42;25.03;;;20.20;;
3627;SDS011;1830;49.000;12.074;2023-05-16T14:44:09;25.57;;;21.50;;